Time;durP1;ratioP1;P1;durP2;ratioP2;P2;SDS_P1;SDS_P2;PMS_P1;PMS_P2;Temp;Humidity;BMP_temperature;BMP_pressure;BME280_temperature;BME280_humidity;BME280_pressure;Samples;Min_cycle;Max_cycle;Signal;HPM_P1;HPM_P2
2021/04/20 00:02:14;;;;;;;0.95;0.73;;;;;;;4.12;78.69;92799.41;5089928;28;20101;-47
2021/04/20 00:04:39;;;;;;;1.00;1.00;;;;;;;4.14;78.99;92801.63;5088446;28;20092;-46
2021/04/20 00:07:05;;;;;;;1.08;1.08;;;;;;;4.11;79.10;92800.69;5089849;28;20024;-46
2021/04/20 00:09:31;;;;;;;0.40;0.38;;;;;;;4.14;78.72;92805.09;5089666;28;20051;-44
2021/04/20 00:11:56;;;;;;;0.22;0.22;;;;;;;4.08;78.56;92804.44;5089755;28;20111;-44
2021/04/20 00:14:22;;;;;;;0.20;0.20;;;;;;;4.18;78.91;92802.06;5088180;28;20020;-47
2021/04/20 00:16:47;;;;;;;0.20;0.20;;;;;;;4.23;78.69;92809.41;5089660;28;20117;-45
2021/04/20 00:19:13;;;;;;;0.77;0.70;;;;;;;4.22;78.94;92811.41;5088375;28;20028;-46
2021/04/20 00:21:38;;;;;;;0.50;0.50;;;;;;;4.14;79.06;92816.00;5089809;28;20028;-46
2021/04/20 00:24:04;;;;;;;0.22;0.22;;;;;;;4.12;78.44;92798.66;5089763;28;20032;-44
2021/04/20 00:26:30;;;;;;;4.57;0.93;;;;;;;4.23;78.00;92815.63;5089362;28;20070;-46
2021/04/20 00:28:55;;;;;;;0.22;0.22;;;;;;;4.27;77.64;92815.28;5089439;28;20428;-43
2021/04/20 00:31:21;;;;;;;1.45;0.77;;;;;;;4.27;77.57;92826.97;5089458;28;20020;-44
2021/04/20 00:33:46;;;;;;;0.65;0.65;;;;;;;4.21;77.39;92820.88;5089569;28;20012;-47
2021/04/20 00:36:12;;;;;;;0.40;0.40;;;;;;;4.17;78.15;92820.44;5089325;28;20050;-44
2021/04/20 00:38:38;;;;;;;0.20;0.20;;;;;;;4.15;78.54;92822.97;5089128;28;20069;-43
2021/04/20 00:41:11;;;;;;;0.50;0.50;;;;;;;4.11;78.54;92832.72;5089394;28;20031;-43
2021/04/20 00:43:39;;;;;;;0.30;0.30;;;;;;;4.10;78.73;92831.97;5089269;28;20028;-40
2021/04/20 00:46:12;;;;;;;0.30;0.30;;;;;;;4.07;79.35;92833.00;5106512;28;20096;-44
2021/04/20 00:48:38;;;;;;;2.72;0.63;;;;;;;4.14;78.76;92826.19;5109516;28;20024;-46
2021/04/20 00:51:05;;;;;;;0.30;0.30;;;;;;;4.25;78.33;92831.47;5109773;28;20027;-43
2021/04/20 00:53:30;;;;;;;0.25;0.25;;;;;;;4.27;78.63;92831.69;5109910;28;20027;-43
2021/04/20 00:55:56;;;;;;;0.28;0.28;;;;;;;4.35;77.73;92836.00;5109715;28;20103;-45
2021/04/20 00:58:21;;;;;;;0.47;0.43;;;;;;;4.33;78.08;92833.06;5109320;28;20085;-45
2021/04/20 01:00:48;;;;;;;0.40;0.40;;;;;;;4.36;78.16;92837.50;5109491;28;20024;-46
2021/04/20 01:03:13;;;;;;;0.40;0.40;;;;;;;4.41;77.90;92836.66;5109770;28;20020;-44
2021/04/20 01:05:39;;;;;;;0.35;0.35;;;;;;;4.37;77.96;92836.25;5109752;28;20462;-44
2021/04/20 01:08:12;;;;;;;0.40;0.40;;;;;;;4.39;77.82;92836.47;5109629;28;20085;-44
2021/04/20 01:10:40;;;;;;;1.00;1.00;;;;;;;4.39;77.94;92841.94;5109486;28;20024;-45
2021/04/20 01:13:07;;;;;;;0.98;0.95;;;;;;;4.37;77.90;92849.91;5109588;28;20016;-44
2021/04/20 01:15:33;;;;;;;0.55;0.55;;;;;;;4.40;78.14;92848.09;5094665;28;20024;-44
2021/04/20 01:18:16;;;;;;;1.05;0.95;;;;;;;4.34;78.51;92850.94;5088920;28;20024;-43
2021/04/20 01:20:51;;;;;;;0.95;0.52;;;;;;;4.31;78.24;92843.78;5088810;28;20031;-44
2021/04/20 01:23:43;;;;;;;0.93;0.65;;;;;;;4.16;78.72;92843.53;5089023;28;20028;-44
2021/04/20 01:26:09;;;;;;;0.45;0.45;;;;;;;4.15;79.44;92853.00;5059690;28;20039;-43
2021/04/20 01:28:35;;;;;;;0.40;0.40;;;;;;;4.17;79.73;92850.50;5091234;28;20056;-44
2021/04/20 01:31:01;;;;;;;0.40;0.40;;;;;;;4.27;79.36;92859.75;5092488;28;20030;-42
2021/04/20 01:33:27;;;;;;;1.10;0.70;;;;;;;4.30;78.50;92855.25;5092409;28;20016;-42
2021/04/20 01:35:52;;;;;;;0.20;0.20;;;;;;;4.32;78.38;92856.19;5092699;28;20030;-42
2021/04/20 01:38:18;;;;;;;0.20;0.20;;;;;;;4.37;78.81;92866.31;5090864;28;20035;-42
2021/04/20 01:40:44;;;;;;;0.38;0.38;;;;;;;4.43;78.98;92860.75;5096129;28;20114;-42
2021/04/20 01:43:13;;;;;;;0.55;0.55;;;;;;;4.49;78.67;92869.56;5111655;28;20083;-42
2021/04/20 01:45:41;;;;;;;0.30;0.30;;;;;;;4.48;79.12;92859.91;5112871;28;20415;-45
2021/04/20 01:48:06;;;;;;;0.20;0.20;;;;;;;4.50;79.10;92863.56;5112788;28;20039;-44
2021/04/20 01:50:32;;;;;;;0.20;0.20;;;;;;;4.58;78.39;92861.72;5111487;28;20063;-45
2021/04/20 01:52:57;;;;;;;0.65;0.65;;;;;;;4.58;78.52;92861.72;5112438;28;20023;-45
2021/04/20 01:55:23;;;;;;;0.88;0.88;;;;;;;4.56;78.98;92860.75;5111182;28;20111;-44
2021/04/20 01:57:50;;;;;;;0.60;0.60;;;;;;;4.63;78.71;92865.59;5111310;28;20022;-42
2021/04/20 02:00:17;;;;;;;0.60;0.60;;;;;;;4.63;79.35;92863.59;5112268;28;20034;-44
2021/04/20 02:02:42;;;;;;;0.52;0.52;;;;;;;4.69;78.93;92857.28;5112461;28;20027;-43
2021/04/20 02:05:09;;;;;;;0.25;0.25;;;;;;;4.67;78.61;92866.03;5110608;28;20024;-43
2021/04/20 02:07:36;;;;;;;0.50;0.50;;;;;;;4.69;79.13;92868.22;5103220;27;20089;-43
2021/04/20 02:10:04;;;;;;;0.35;0.35;;;;;;;4.67;79.18;92866.03;5092012;28;20032;-41
2021/04/20 02:12:29;;;;;;;0.55;0.50;;;;;;;4.63;79.16;92863.59;5092653;28;20049;-40
2021/04/20 02:14:54;;;;;;;0.20;0.20;;;;;;;4.63;78.80;92865.59;5091451;28;20058;-40
2021/04/20 02:17:22;;;;;;;0.40;0.40;;;;;;;4.65;79.22;92862.34;5091508;28;20081;-41
2021/04/20 02:19:47;;;;;;;0.73;0.55;;;;;;;4.61;79.46;92865.41;5097414;28;20509;-40
2021/04/20 02:22:13;;;;;;;0.80;0.80;;;;;;;4.75;78.86;92866.13;5103776;28;20054;-41
2021/04/20 02:24:39;;;;;;;1.10;1.10;;;;;;;4.80;78.83;92873.50;5103558;28;20038;-40
2021/04/20 02:27:05;;;;;;;0.65;0.65;;;;;;;4.80;78.58;92874.25;5094250;28;20089;-40
2021/04/20 02:29:30;;;;;;;0.20;0.20;;;;;;;4.76;78.82;92865.63;5090609;28;20042;-40
2021/04/20 02:31:56;;;;;;;0.43;0.35;;;;;;;4.72;78.92;92865.19;5090279;28;20466;-41
2021/04/20 02:34:21;;;;;;;0.40;0.40;;;;;;;4.78;79.05;92870.56;5090280;28;20052;-41
2021/04/20 02:36:49;;;;;;;0.20;0.20;;;;;;;4.73;79.30;92871.38;5093441;28;20040;-40
2021/04/20 02:39:15;;;;;;;0.38;0.35;;;;;;;4.76;79.22;92876.56;5092183;28;20031;-41
2021/04/20 02:41:47;;;;;;;0.38;0.38;;;;;;;4.79;79.05;92872.00;5091212;28;20497;-41
2021/04/20 02:44:13;;;;;;;0.20;0.20;;;;;;;4.68;78.77;92881.16;5091452;28;20039;-41
2021/04/20 02:46:40;;;;;;;0.20;0.20;;;;;;;4.75;78.69;92882.53;5091269;28;20462;-41
2021/04/20 02:49:07;;;;;;;0.30;0.30;;;;;;;4.75;78.10;92864.13;5091238;28;20409;-41
2021/04/20 02:51:34;;;;;;;0.40;0.38;;;;;;;4.84;77.85;92876.66;5091204;28;20020;-41
2021/04/20 02:54:00;;;;;;;0.55;0.55;;;;;;;4.80;78.10;92876.97;5090474;28;20024;-41
2021/04/20 02:56:26;;;;;;;0.88;0.88;;;;;;;4.70;78.52;92888.84;5089851;28;20698;-41
2021/04/20 02:58:51;;;;;;;0.70;0.70;;;;;;;4.59;78.88;92867.94;5089550;28;20523;-43
2021/04/20 03:01:30;;;;;;;0.22;0.22;;;;;;;4.52;79.71;92882.94;5089812;28;20020;-43
2021/04/20 03:03:56;;;;;;;0.85;0.85;;;;;;;4.45;80.15;92886.28;5089395;28;20020;-43
2021/04/20 03:06:22;;;;;;;0.80;0.55;;;;;;;4.32;80.84;92883.53;5089446;28;20084;-42
2021/04/20 03:08:48;;;;;;;0.25;0.25;;;;;;;4.21;82.06;92886.44;5090506;28;20028;-43
2021/04/20 03:11:16;;;;;;;0.40;0.40;;;;;;;4.21;82.51;92894.63;5090564;28;20035;-43
2021/04/20 03:13:43;;;;;;;0.22;0.22;;;;;;;4.34;82.16;92894.69;5090580;28;20081;-45
2021/04/20 03:16:09;;;;;;;0.60;0.60;;;;;;;4.42;81.93;92892.78;5090687;28;20027;-44
2021/04/20 03:18:35;;;;;;;0.55;0.52;;;;;;;4.52;81.81;92895.88;5089490;28;20043;-43
2021/04/20 03:21:20;;;;;;;0.20;0.20;;;;;;;4.60;81.18;92891.25;5106019;28;20024;-44
2021/04/20 03:23:45;;;;;;;0.80;0.80;;;;;;;4.67;80.52;92890.63;5109510;28;20102;-43
2021/04/20 03:26:26;;;;;;;1.40;1.30;;;;;;;4.52;80.46;92888.41;5102713;28;20104;-44
2021/04/20 03:28:53;;;;;;;1.55;1.05;;;;;;;4.44;80.71;92898.47;5090160;28;20047;-44
2021/04/20 03:31:18;;;;;;;0.80;0.80;;;;;;;4.44;80.27;92886.81;5090262;28;20153;-44
2021/04/20 03:33:44;;;;;;;0.40;0.40;;;;;;;4.47;80.61;92891.22;5098463;28;20110;-44
2021/04/20 03:36:33;;;;;;;0.30;0.30;;;;;;;4.44;80.73;92890.28;5109785;28;20019;-43
2021/04/20 03:39:04;;;;;;;;;;;;;;;4.55;80.28;92892.81;5101801;28;20043;-43
2021/04/20 03:41:34;;;;;;;1.10;1.10;;;;;;;4.52;80.12;92893.88;5109262;28;19914;-42
2021/04/20 03:44:00;;;;;;;0.40;0.40;;;;;;;4.43;80.52;92897.00;5109243;28;20510;-43
2021/04/20 03:46:35;;;;;;;0.43;0.43;;;;;;;4.44;80.46;92895.75;5108804;28;20020;-42
2021/04/20 03:49:24;;;;;;;0.68;0.68;;;;;;;4.52;80.60;92906.81;5108976;28;20012;-43
2021/04/20 03:51:52;;;;;;;1.75;1.65;;;;;;;4.56;80.56;92905.25;5103716;28;20035;-42
2021/04/20 03:54:18;;;;;;;2.90;2.65;;;;;;;4.54;80.36;92912.50;5108764;28;20016;-42
2021/04/20 03:56:46;;;;;;;0.20;0.20;;;;;;;4.59;80.36;92917.84;5109238;28;20031;-44
2021/04/20 03:59:12;;;;;;;1.27;1.23;;;;;;;4.66;80.31;92916.50;5108832;28;20499;-44
2021/04/20 04:01:40;;;;;;;2.00;1.90;;;;;;;4.70;79.89;92921.66;5109130;28;20102;-44
2021/04/20 04:04:07;;;;;;;0.98;0.98;;;;;;;4.72;80.06;92919.16;5108733;28;20038;-45
2021/04/20 04:06:35;;;;;;;1.35;1.30;;;;;;;4.60;80.49;92927.53;5110256;28;20027;-43
2021/04/20 04:09:02;;;;;;;1.13;1.10;;;;;;;4.57;80.67;92905.97;5109923;28;20020;-43
2021/04/20 04:11:31;;;;;;;1.70;1.60;;;;;;;4.80;80.27;92928.19;5110148;28;20035;-43
2021/04/20 04:13:56;;;;;;;2.53;2.42;;;;;;;4.85;79.92;92924.63;5107588;28;20015;-42
2021/04/20 04:16:23;;;;;;;1.13;1.10;;;;;;;4.93;79.54;92926.22;5088537;28;20031;-44
2021/04/20 04:18:51;;;;;;;2.45;2.28;;;;;;;4.93;79.92;92936.41;5088536;28;20406;-45
2021/04/20 04:21:20;;;;;;;1.80;1.67;;;;;;;4.97;80.03;92932.13;5088221;28;20035;-44
2021/04/20 04:23:47;;;;;;;1.67;1.63;;;;;;;5.09;79.68;92932.66;5088170;28;20093;-44
2021/04/20 04:26:15;;;;;;;4.88;1.02;;;;;;;5.07;79.24;92932.41;5089069;28;20020;-43
2021/04/20 04:28:43;;;;;;;0.98;0.98;;;;;;;5.05;79.33;92935.69;5089106;28;20530;-45
2021/04/20 04:31:09;;;;;;;1.17;1.08;;;;;;;5.12;78.70;92932.34;5107105;28;20466;-46
2021/04/20 04:33:35;;;;;;;1.88;1.52;;;;;;;5.02;79.15;92923.06;5108795;28;20020;-45
2021/04/20 04:36:02;;;;;;;1.00;0.95;;;;;;;5.06;79.26;92915.28;5108462;28;20024;-44
2021/04/20 04:38:28;;;;;;;0.63;0.63;;;;;;;5.15;78.84;92933.28;5108585;28;20024;-45
2021/04/20 04:40:57;;;;;;;0.30;0.30;;;;;;;5.02;79.24;92934.03;5109950;28;20519;-46
2021/04/20 04:43:22;;;;;;;;;;;;;;;5.16;79.46;92942.94;5109238;28;20023;-45
2021/04/20 04:45:48;;;;;;;1.00;1.00;;;;;;;5.16;79.41;92938.22;5108458;28;20398;-44
2021/04/20 04:48:14;;;;;;;1.20;1.20;;;;;;;5.18;79.43;92943.91;5108446;28;20076;-44
2021/04/20 04:50:40;;;;;;;0.68;0.68;;;;;;;5.19;79.36;92939.91;5109937;28;20031;-44
2021/04/20 04:53:07;;;;;;;1.20;1.15;;;;;;;5.18;79.28;92937.69;5108757;28;20042;-46
2021/04/20 04:55:33;;;;;;;1.45;1.42;;;;;;;5.05;79.14;92926.72;5108510;28;20030;-44
2021/04/20 04:57:58;;;;;;;2.50;1.80;;;;;;;5.20;79.49;92948.84;5109485;28;20024;-44
2021/04/20 05:00:25;;;;;;;0.70;0.70;;;;;;;5.21;79.46;92950.31;5110712;28;20020;-48
2021/04/20 05:02:50;;;;;;;1.13;1.13;;;;;;;5.25;79.21;92956.22;5113813;27;20114;-45
2021/04/20 05:05:17;;;;;;;0.57;0.57;;;;;;;5.18;79.67;92954.84;5112530;28;20148;-44
2021/04/20 05:07:43;;;;;;;1.00;1.00;;;;;;;5.20;79.54;92957.78;5113752;28;20020;-43
2021/04/20 05:10:11;;;;;;;0.47;0.47;;;;;;;5.22;79.10;92955.28;5113177;28;20564;-47
2021/04/20 05:12:37;;;;;;;0.70;0.70;;;;;;;5.35;79.61;92952.53;5113360;28;20046;-43
2021/04/20 05:15:12;;;;;;;0.95;0.95;;;;;;;5.37;78.90;92960.94;5113186;28;20703;-45
2021/04/20 05:17:38;;;;;;;0.28;0.28;;;;;;;5.37;79.02;92952.75;5113056;28;20020;-42
2021/04/20 05:20:05;;;;;;;0.80;0.80;;;;;;;5.43;79.05;92963.59;5112133;28;20028;-42
2021/04/20 05:22:30;;;;;;;0.57;0.57;;;;;;;5.39;79.25;92963.91;5111783;28;20030;-42
2021/04/20 05:24:56;;;;;;;1.08;1.02;;;;;;;5.58;78.70;92965.78;5111840;28;20098;-42
2021/04/20 05:27:21;;;;;;;0.30;0.30;;;;;;;5.66;78.03;92970.09;5110707;28;20089;-43
2021/04/20 05:29:47;;;;;;;0.55;0.55;;;;;;;5.78;78.11;92982.28;5101523;28;20412;-42
2021/04/20 05:32:12;;;;;;;1.77;1.65;;;;;;;5.88;77.84;92971.69;5092870;28;20050;-45
2021/04/20 05:34:38;;;;;;;0.98;0.98;;;;;;;6.02;77.64;92976.59;5091278;28;20492;-43
2021/04/20 05:37:04;;;;;;;0.70;0.70;;;;;;;6.01;76.28;92977.88;5091510;28;20093;-42
2021/04/20 05:39:29;;;;;;;1.23;1.23;;;;;;;5.99;76.57;92982.41;5092711;28;20020;-46
2021/04/20 05:41:55;;;;;;;1.58;1.45;;;;;;;5.95;77.22;92990.22;5092713;28;20445;-49
2021/04/20 05:44:20;;;;;;;0.90;0.88;;;;;;;6.00;78.11;92995.56;5092332;28;20097;-45
2021/04/20 05:46:47;;;;;;;1.42;1.13;;;;;;;6.22;77.46;92988.88;5092199;28;20051;-46
2021/04/20 05:49:14;;;;;;;0.68;0.68;;;;;;;6.32;77.08;92989.91;5092254;28;20028;-46
2021/04/20 05:51:40;;;;;;;1.77;1.67;;;;;;;6.37;77.27;92989.03;5092518;28;20023;-45
2021/04/20 05:54:07;;;;;;;0.98;0.98;;;;;;;6.23;75.78;92993.09;5092465;28;20055;-47
2021/04/20 05:56:33;;;;;;;0.65;0.65;;;;;;;6.34;75.42;92998.34;5092455;28;20027;-44
2021/04/20 05:59:00;;;;;;;0.45;0.45;;;;;;;6.17;75.04;92991.75;5092333;28;20024;-45
2021/04/20 06:01:27;;;;;;;4.22;1.35;;;;;;;6.11;75.44;93003.56;5092304;28;20691;-46
2021/04/20 06:03:54;;;;;;;2.85;1.58;;;;;;;6.10;75.29;93002.09;5092025;28;20110;-47
2021/04/20 06:06:21;;;;;;;0.90;0.90;;;;;;;6.23;75.52;92995.09;5091877;28;20527;-45
2021/04/20 06:08:48;;;;;;;2.92;0.85;;;;;;;6.22;74.99;92994.34;5091766;28;20099;-45
2021/04/20 06:11:14;;;;;;;0.55;0.55;;;;;;;6.10;75.85;93004.09;5091469;28;20031;-47
2021/04/20 06:13:40;;;;;;;1.08;1.08;;;;;;;6.22;76.34;93005.31;5090832;28;20031;-47
2021/04/20 06:16:06;;;;;;;1.67;0.68;;;;;;;6.54;74.64;93002.38;5091994;28;20468;-49
2021/04/20 06:18:32;;;;;;;1.05;1.05;;;;;;;6.73;74.33;93002.94;5091712;28;20028;-45
2021/04/20 06:21:01;;;;;;;1.98;1.83;;;;;;;6.63;74.73;93001.91;5091855;28;20020;-45
2021/04/20 06:23:28;;;;;;;;;;;;;;;6.53;75.57;93009.13;5092163;28;20761;-46
2021/04/20 06:25:58;;;;;;;0.55;0.55;;;;;;;6.55;74.85;93017.56;5091120;28;19915;-45
2021/04/20 06:28:25;;;;;;;0.38;0.38;;;;;;;6.60;73.73;93011.22;5098075;28;20040;-46
2021/04/20 06:30:51;;;;;;;1.10;1.10;;;;;;;6.65;75.02;93013.81;5100201;28;20089;-45
2021/04/20 06:33:18;;;;;;;3.35;1.40;;;;;;;7.01;74.24;93008.50;5099311;28;20066;-43
2021/04/20 06:35:43;;;;;;;2.00;1.90;;;;;;;7.23;73.91;93016.19;5098507;28;20027;-43
2021/04/20 06:38:12;;;;;;;1.45;1.20;;;;;;;7.35;72.88;93011.88;5099853;28;20419;-48
2021/04/20 06:40:41;;;;;;;2.07;1.97;;;;;;;7.22;73.20;93013.97;5098857;28;20020;-47
2021/04/20 06:43:12;;;;;;;1.08;1.08;;;;;;;7.28;72.45;93017.28;5097761;28;20066;-48
2021/04/20 06:45:57;;;;;;;0.82;0.82;;;;;;;7.14;72.98;93019.41;5098936;28;20020;-46
2021/04/20 06:48:52;;;;;;;1.10;1.10;;;;;;;7.10;73.90;93021.75;5101724;28;20020;-46
2021/04/20 06:51:25;;;;;;;1.77;1.70;;;;;;;7.01;73.45;93024.97;5099947;28;20020;-48
2021/04/20 06:53:53;;;;;;;1.88;1.65;;;;;;;6.94;73.44;93014.66;5100809;28;20020;-47
2021/04/20 06:56:41;;;;;;;1.13;1.13;;;;;;;6.96;73.96;93027.81;5097918;28;20081;-47
2021/04/20 06:59:34;;;;;;;3.63;3.00;;;;;;;6.87;73.47;93023.53;5099867;28;20015;-50
2021/04/20 07:02:06;;;;;;;4.68;2.28;;;;;;;6.78;74.50;93024.00;5099058;28;20081;-49
2021/04/20 07:04:45;;;;;;;0.47;0.47;;;;;;;6.82;74.45;93032.66;5098114;28;20384;-47
2021/04/20 07:07:26;;;;;;;1.98;1.85;;;;;;;7.10;74.28;93030.00;5099815;28;20505;-45
2021/04/20 07:09:57;;;;;;;1.50;1.50;;;;;;;6.98;73.44;93028.03;5100515;28;20492;-46
2021/04/20 07:12:23;;;;;;;2.22;2.13;;;;;;;7.10;73.69;93027.25;5096854;28;20019;-46
2021/04/20 07:14:51;;;;;;;2.42;2.22;;;;;;;7.34;74.28;93020.66;5083603;28;20085;-47
2021/04/20 07:17:29;;;;;;;2.28;1.98;;;;;;;7.66;72.22;93023.81;5099071;28;20019;-46
2021/04/20 07:20:15;;;;;;;1.30;1.20;;;;;;;8.02;71.58;93026.56;5100416;28;20659;-47
2021/04/20 07:22:59;;;;;;;1.23;1.17;;;;;;;8.09;70.30;93025.88;5097753;28;20028;-45
2021/04/20 07:25:28;;;;;;;1.65;1.55;;;;;;;8.10;70.23;93030.81;5095309;28;20027;-44
2021/04/20 07:28:35;;;;;;;6.97;1.13;;;;;;;8.09;70.27;93020.38;5097765;28;20783;-45
2021/04/20 07:31:13;;;;;;;1.73;1.60;;;;;;;8.02;69.82;93032.06;5080384;28;20031;-45
2021/04/20 07:33:55;;;;;;;1.67;1.58;;;;;;;8.34;70.06;93029.66;5098025;28;20038;-46
2021/04/20 07:36:59;;;;;;;1.58;1.48;;;;;;;8.54;69.80;93030.84;5096369;28;20103;-46
2021/04/20 07:39:32;;;;;;;0.98;0.98;;;;;;;8.74;67.62;93041.75;5081581;28;20043;-45
2021/04/20 07:42:28;;;;;;;0.45;0.45;;;;;;;8.64;67.63;93037.31;5094441;28;20026;-46
2021/04/20 07:45:04;;;;;;;0.93;0.93;;;;;;;8.62;67.93;93043.34;5091533;28;20126;-47
2021/04/20 07:47:38;;;;;;;1.85;0.82;;;;;;;8.84;68.16;93044.69;5095713;28;20027;-47
2021/04/20 07:50:15;;;;;;;2.50;1.98;;;;;;;9.12;66.81;93041.78;5096791;28;20042;-47
2021/04/20 07:53:06;;;;;;;1.70;1.60;;;;;;;9.13;65.75;93055.03;5094822;28;20059;-46
2021/04/20 07:55:54;;;;;;;1.25;1.25;;;;;;;9.46;65.57;93049.72;5088050;28;20035;-45
2021/04/20 07:58:22;;;;;;;1.70;1.60;;;;;;;9.67;65.12;93051.00;5096300;28;20832;-45
2021/04/20 08:01:29;;;;;;;1.10;1.10;;;;;;;9.58;63.38;93054.31;5097113;28;20040;-46
2021/04/20 08:04:04;;;;;;;2.75;2.50;;;;;;;9.78;62.96;93058.16;5055400;28;20484;-46
2021/04/20 08:06:29;;;;;;;1.48;1.38;;;;;;;9.82;63.15;93044.75;5089043;28;20123;-44
2021/04/20 08:09:02;;;;;;;1.02;1.02;;;;;;;9.94;62.62;93051.31;5087232;28;20027;-44
2021/04/20 08:11:34;;;;;;;1.23;0.93;;;;;;;9.71;61.78;93072.69;5095699;28;20036;-44
2021/04/20 08:14:03;;;;;;;2.65;2.03;;;;;;;9.78;62.55;93072.69;5095879;28;20115;-45
2021/04/20 08:16:37;;;;;;;3.37;1.67;;;;;;;9.75;62.62;93065.50;5093902;28;20036;-45
2021/04/20 08:19:06;;;;;;;1.88;1.67;;;;;;;9.79;61.51;93067.88;5095656;28;21095;-45
2021/04/20 08:21:32;;;;;;;0.90;0.90;;;;;;;9.99;59.95;93061.44;5096206;28;20062;-46
2021/04/20 08:24:00;;;;;;;2.38;2.20;;;;;;;10.09;58.51;93059.56;5094314;28;20024;-47
2021/04/20 08:26:46;;;;;;;2.72;2.53;;;;;;;9.99;58.45;93063.44;5094687;28;20103;-46
2021/04/20 08:29:17;;;;;;;0.80;0.80;;;;;;;9.95;59.68;93061.06;5097248;28;20079;-43
2021/04/20 08:31:50;;;;;;;2.00;1.85;;;;;;;9.89;60.27;93063.31;5096235;28;20480;-44
2021/04/20 08:34:19;;;;;;;1.95;1.85;;;;;;;9.91;60.00;93063.47;5097569;28;20032;-45
2021/04/20 08:36:56;;;;;;;;;;;;;;;9.87;58.36;93066.59;5096439;28;20081;-43
2021/04/20 08:39:40;;;;;;;0.52;0.52;;;;;;;10.39;58.07;93064.31;5099047;28;19934;-44
2021/04/20 08:42:30;;;;;;;2.38;0.93;;;;;;;10.91;54.72;93060.63;5098474;28;20533;-44
2021/04/20 08:45:04;;;;;;;2.17;1.80;;;;;;;11.52;53.98;93069.22;5100915;28;20024;-45
2021/04/20 08:47:41;;;;;;;0.65;0.65;;;;;;;11.44;54.14;93068.56;5095754;28;20038;-45
2021/04/20 08:50:13;;;;;;;1.05;1.05;;;;;;;11.23;55.12;93074.41;5089945;28;20028;-47
2021/04/20 08:52:49;;;;;;;1.20;1.17;;;;;;;11.43;53.68;93061.59;5089851;28;20115;-46
2021/04/20 08:55:30;;;;;;;0.70;0.70;;;;;;;11.54;52.57;93071.47;5096939;28;20024;-45
2021/04/20 08:58:32;;;;;;;0.75;0.75;;;;;;;11.28;54.18;93078.97;5107974;28;20086;-46
2021/04/20 09:01:06;;;;;;;2.92;2.65;;;;;;;11.26;54.54;93080.88;5111274;28;20036;-45
2021/04/20 09:03:50;;;;;;;0.70;0.70;;;;;;;11.06;56.59;93079.88;5098642;28;20036;-45
2021/04/20 09:06:30;;;;;;;4.47;1.58;;;;;;;10.71;57.77;93088.50;5090053;28;20036;-47
2021/04/20 09:09:03;;;;;;;1.42;1.33;;;;;;;10.64;56.29;93081.72;5104194;28;20046;-44
2021/04/20 09:11:34;;;;;;;1.45;1.23;;;;;;;10.46;58.49;93085.66;5111308;28;20032;-46
2021/04/20 09:14:07;;;;;;;1.38;1.25;;;;;;;10.29;58.98;93085.50;5106618;28;20143;-46
2021/04/20 09:16:45;;;;;;;1.85;1.45;;;;;;;10.04;60.24;93090.13;5100595;28;20085;-44
2021/04/20 09:19:13;;;;;;;2.50;2.25;;;;;;;9.86;60.41;93100.25;5104064;28;20054;-44
2021/04/20 09:22:06;;;;;;;3.65;2.10;;;;;;;10.03;60.61;93100.41;5110189;28;20055;-45
2021/04/20 09:24:42;;;;;;;1.65;1.55;;;;;;;10.12;58.21;93099.88;5095251;28;20652;-45
2021/04/20 09:27:10;;;;;;;2.45;2.33;;;;;;;10.07;58.59;93100.06;5089659;28;20106;-44
2021/04/20 09:29:59;;;;;;;1.80;1.70;;;;;;;10.06;58.81;93104.09;5089226;28;20036;-46
2021/04/20 09:32:35;;;;;;;3.15;1.00;;;;;;;10.29;58.91;93105.53;5092996;28;20031;-47
2021/04/20 09:35:01;;;;;;;1.02;1.02;;;;;;;10.41;58.15;93095.59;5112504;28;20038;-49
2021/04/20 09:37:29;;;;;;;3.45;1.80;;;;;;;10.49;57.33;93085.25;5085644;28;20044;-47
2021/04/20 09:39:55;;;;;;;2.15;1.98;;;;;;;10.41;57.24;93087.31;5071074;28;20028;-46
2021/04/20 09:42:23;;;;;;;4.68;1.83;;;;;;;10.52;57.34;93095.19;5087885;28;20035;-45
2021/04/20 09:45:18;;;;;;;1.25;1.25;;;;;;;10.54;57.03;93100.16;5070352;28;20063;-46
2021/04/20 09:47:55;;;;;;;1.75;1.65;;;;;;;10.33;58.46;93089.34;5071048;28;20016;-46
2021/04/20 09:50:31;;;;;;;3.05;2.75;;;;;;;10.25;56.45;93096.91;5070892;28;20519;-47
2021/04/20 09:53:29;;;;;;;0.90;0.90;;;;;;;10.00;56.05;93101.53;5071751;28;20060;-46
2021/04/20 09:56:12;;;;;;;1.63;1.52;;;;;;;9.88;57.16;93103.19;5087372;28;20532;-45
2021/04/20 09:58:41;;;;;;;1.45;1.35;;;;;;;9.83;56.95;93104.84;5070393;28;20032;-46
2021/04/20 10:01:39;;;;;;;4.28;3.65;;;;;;;9.91;58.18;93099.31;5071949;28;20020;-45
2021/04/20 10:04:09;;;;;;;1.27;1.23;;;;;;;9.86;58.00;93094.72;5063838;28;20090;-46
2021/04/20 10:06:44;;;;;;;2.47;1.83;;;;;;;10.07;58.73;93103.53;5071839;28;20029;-47
2021/04/20 10:09:44;;;;;;;1.75;1.65;;;;;;;10.31;57.82;93102.97;5071510;28;20570;-45
2021/04/20 10:12:49;;;;;;;1.65;1.55;;;;;;;10.19;57.60;93099.13;5048961;28;20025;-45
2021/04/20 10:15:23;;;;;;;2.00;1.67;;;;;;;9.99;57.67;93094.53;5048014;28;20040;-45
2021/04/20 10:18:05;;;;;;;1.58;1.42;;;;;;;10.22;57.26;93092.50;5071657;28;20028;-45
2021/04/20 10:20:57;;;;;;;1.23;1.17;;;;;;;10.24;57.93;93092.69;5071323;28;20057;-45
2021/04/20 10:23:41;;;;;;;1.25;0.88;;;;;;;10.30;57.23;93092.50;5051154;28;20032;-45
2021/04/20 10:26:31;;;;;;;1.55;1.48;;;;;;;10.23;57.36;93090.47;5050976;28;20509;-45
2021/04/20 10:29:05;;;;;;;3.80;2.53;;;;;;;10.34;55.78;93085.31;5051053;28;20041;-46
2021/04/20 10:31:34;;;;;;;1.23;1.23;;;;;;;10.52;56.37;93091.69;5050222;28;20100;-46
2021/04/20 10:34:01;;;;;;;2.40;2.25;;;;;;;11.40;54.64;93062.69;5050186;28;20071;-45
2021/04/20 10:36:27;;;;;;;1.17;1.00;;;;;;;12.35;49.69;93089.94;5052358;28;20031;-47
2021/04/20 10:38:54;;;;;;;1.70;1.63;;;;;;;13.05;47.22;93083.81;5049887;28;20025;-46
2021/04/20 10:41:21;;;;;;;1.52;1.45;;;;;;;13.18;48.43;93084.22;5050374;28;20025;-46
2021/04/20 10:43:47;;;;;;;2.17;2.08;;;;;;;14.58;47.93;93081.63;5051292;28;20016;-47
2021/04/20 10:46:12;;;;;;;2.28;2.08;;;;;;;16.27;42.49;93085.22;5049328;28;20493;-48
2021/04/20 10:48:38;;;;;;;1.50;1.40;;;;;;;17.15;41.80;93079.19;5057896;28;20066;-44
2021/04/20 10:51:05;;;;;;;2.33;2.10;;;;;;;17.93;37.09;93089.00;5069491;28;20024;-47
2021/04/20 10:53:33;;;;;;;2.25;1.30;;;;;;;19.02;36.91;93087.06;5069477;28;20032;-44
2021/04/20 10:56:08;;;;;;;1.55;0.73;;;;;;;19.81;33.75;93083.81;5069730;28;20024;-44
2021/04/20 10:58:38;;;;;;;1.92;1.70;;;;;;;20.75;32.33;93094.41;5068165;28;20492;-44
2021/04/20 11:01:03;;;;;;;3.30;1.70;;;;;;;21.33;30.57;93076.97;5069225;28;20032;-44
2021/04/20 11:03:33;;;;;;;1.00;0.98;;;;;;;21.37;31.04;93088.41;5070297;28;20085;-45
2021/04/20 11:06:00;;;;;;;2.15;1.98;;;;;;;21.87;31.03;93081.69;5069482;28;20405;-44
2021/04/20 11:08:48;;;;;;;1.38;1.27;;;;;;;22.18;27.96;93081.69;5070197;28;20033;-46
2021/04/20 11:11:21;;;;;;;1.75;1.33;;;;;;;21.99;27.51;93070.97;5070209;28;20035;-48
2021/04/20 11:13:47;;;;;;;2.17;2.03;;;;;;;22.03;28.20;93087.28;5070299;28;20120;-46
2021/04/20 11:16:16;;;;;;;1.48;1.30;;;;;;;21.79;26.97;93064.38;5050482;28;20025;-46
2021/04/20 11:18:44;;;;;;;1.67;1.58;;;;;;;21.41;28.37;93040.84;5048931;28;20051;-44
2021/04/20 11:21:14;;;;;;;16.92;2.05;;;;;;;21.20;28.60;93068.59;5061979;28;20104;-45
2021/04/20 11:23:53;;;;;;;2.83;2.63;;;;;;;19.75;31.52;93083.47;5049201;28;20020;-45
2021/04/20 11:26:21;;;;;;;1.33;1.23;;;;;;;18.15;32.38;93068.69;5049974;28;20374;-46
2021/04/20 11:28:53;;;;;;;1.92;1.70;;;;;;;17.16;33.99;93089.75;5048633;28;20063;-46
2021/04/20 11:31:18;;;;;;;1.88;0.93;;;;;;;16.27;35.20;93090.78;5048744;28;20039;-46
2021/04/20 11:33:46;;;;;;;1.35;1.27;;;;;;;15.82;36.97;93092.59;5058537;28;20067;-45
2021/04/20 11:36:19;;;;;;;1.80;1.70;;;;;;;15.67;38.37;93090.91;5067144;28;20036;-46
2021/04/20 11:38:56;;;;;;;1.45;1.25;;;;;;;15.24;38.49;93094.78;5064156;28;20037;-46
2021/04/20 11:41:30;;;;;;;1.63;1.58;;;;;;;14.75;39.10;93095.41;5066548;28;20029;-46
2021/04/20 11:43:59;;;;;;;4.78;1.58;;;;;;;14.88;42.06;93092.91;5066903;28;20044;-46
2021/04/20 11:46:26;;;;;;;9.13;1.83;;;;;;;15.16;42.11;93083.81;5065439;28;20021;-47
2021/04/20 11:48:54;;;;;;;2.15;2.05;;;;;;;15.40;40.49;93084.09;5067362;28;20028;-46
2021/04/20 11:51:20;;;;;;;0.45;0.45;;;;;;;15.82;38.73;93084.25;5065884;28;20543;-46
2021/04/20 11:53:47;;;;;;;1.88;1.77;;;;;;;16.39;37.70;93060.97;5065774;28;20033;-45
2021/04/20 11:56:13;;;;;;;1.23;1.13;;;;;;;16.78;35.84;93061.44;5065595;28;20728;-45
2021/04/20 11:58:41;;;;;;;1.73;1.63;;;;;;;16.58;37.43;93064.38;5065223;28;20036;-45
2021/04/20 12:01:12;;;;;;;0.68;0.65;;;;;;;16.28;38.47;93064.41;5064947;28;20456;-46